createdAt,value
2022-11-27T00:02:54.829Z,43.50
2022-11-27T00:07:58.032Z,43.70
2022-11-27T00:13:01.195Z,43.80
2022-11-27T00:18:05.820Z,44.00
2022-11-27T00:23:08.900Z,44.20
2022-11-27T00:28:12.384Z,44.20
2022-11-27T00:33:16.892Z,44.20
2022-11-27T00:38:20.714Z,44.30
2022-11-27T00:43:23.772Z,44.60
2022-11-27T00:48:28.743Z,44.80
2022-11-27T00:53:32.419Z,44.70
2022-11-27T00:58:35.958Z,44.40
2022-11-27T01:03:40.478Z,44.60
2022-11-27T01:08:44.535Z,44.70
2022-11-27T01:13:48.111Z,44.70
2022-11-27T01:18:54.783Z,44.60
2022-11-27T01:23:58.165Z,44.80
2022-11-27T01:29:01.555Z,45.00
2022-11-27T01:34:08.520Z,45.00
2022-11-27T01:39:16.565Z,45.00
2022-11-27T01:44:53.664Z,45.00
2022-11-27T01:50:09.813Z,45.10
2022-11-27T01:55:19.051Z,44.90
2022-11-27T02:00:25.727Z,44.60
2022-11-27T02:05:31.376Z,44.40
2022-11-27T02:10:45.576Z,44.10
2022-11-27T02:15:54.999Z,43.90
2022-11-27T02:21:06.074Z,43.70
2022-11-27T02:26:24.183Z,44.00
2022-11-27T02:31:37.487Z,44.10
2022-11-27T02:36:44.865Z,44.30
2022-11-27T02:41:51.936Z,44.40
2022-11-27T02:46:57.410Z,44.30
2022-11-27T02:52:02.411Z,44.20
2022-11-27T02:57:07.906Z,44.50
2022-11-27T03:02:19.090Z,44.70
2022-11-27T03:07:28.032Z,44.70
2022-11-27T03:12:31.298Z,44.70
2022-11-27T03:17:51.563Z,44.60
2022-11-27T03:22:55.670Z,44.50
2022-11-27T03:28:02.219Z,44.50
2022-11-27T03:33:06.808Z,44.50
2022-11-27T03:38:09.890Z,44.50
2022-11-27T03:43:19.724Z,44.30
2022-11-27T03:48:31.462Z,44.20
2022-11-27T03:53:43.771Z,44.30
2022-11-27T03:58:50.703Z,44.40
2022-11-27T04:03:55.226Z,44.50
2022-11-27T04:08:58.368Z,44.30
2022-11-27T04:14:01.455Z,44.30
2022-11-27T04:19:06.008Z,44.30
2022-11-27T04:24:09.177Z,44.30
2022-11-27T04:29:12.266Z,44.30
2022-11-27T04:34:16.740Z,44.30
2022-11-27T04:39:19.798Z,44.30
2022-11-27T04:44:22.950Z,44.40
2022-11-27T04:49:27.455Z,44.40
2022-11-27T04:54:30.540Z,44.50
2022-11-27T04:59:33.923Z,44.40
2022-11-27T05:04:38.640Z,44.00
2022-11-27T05:09:41.921Z,44.30
2022-11-27T05:14:45.139Z,44.30
2022-11-27T05:19:49.620Z,45.70
2022-11-27T05:24:52.703Z,46.60
2022-11-27T05:29:55.764Z,45.40
2022-11-27T05:35:00.227Z,45.10
2022-11-27T05:40:03.374Z,45.00
2022-11-27T05:45:07.627Z,44.90
2022-11-27T05:50:12.348Z,44.90
2022-11-27T05:55:15.579Z,45.00
2022-11-27T06:00:19.130Z,44.80
2022-11-27T06:05:24.028Z,45.00
2022-11-27T06:10:27.132Z,45.10
2022-11-27T06:15:30.316Z,45.10
2022-11-27T06:20:37.460Z,45.10
2022-11-27T06:25:42.682Z,45.10
2022-11-27T06:30:45.764Z,45.00
2022-11-27T06:35:50.214Z,45.20
2022-11-27T06:40:53.268Z,45.30
2022-11-27T06:45:57.701Z,45.50
2022-11-27T06:51:02.741Z,45.70
2022-11-27T06:56:06.443Z,45.90
2022-11-27T07:01:10.944Z,45.90
2022-11-27T07:06:18.755Z,45.90
2022-11-27T07:11:23.591Z,46.10
2022-11-27T07:16:27.781Z,45.90
2022-11-27T07:21:33.212Z,46.00
2022-11-27T07:26:36.345Z,46.20
2022-11-27T07:31:39.471Z,46.10
2022-11-27T07:36:44.000Z,46.10
2022-11-27T07:41:47.181Z,46.20
2022-11-27T07:46:50.299Z,45.90
2022-11-27T07:51:54.835Z,45.90
2022-11-27T07:56:58.004Z,45.90
2022-11-27T08:02:01.059Z,45.50
2022-11-27T08:07:05.542Z,45.60
2022-11-27T08:12:08.924Z,46.00
2022-11-27T08:17:14.179Z,45.80
2022-11-27T08:22:20.789Z,46.10
2022-11-27T08:27:24.099Z,46.20
2022-11-27T08:32:27.423Z,46.10
2022-11-27T08:37:31.860Z,46.10
2022-11-27T08:42:34.966Z,46.80
2022-11-27T08:47:38.133Z,47.00
2022-11-27T08:52:42.716Z,47.00
2022-11-27T08:57:45.809Z,47.00
2022-11-27T09:02:48.960Z,46.80
2022-11-27T09:07:53.835Z,46.80
2022-11-27T09:12:59.535Z,46.90
2022-11-27T09:18:02.617Z,46.80
2022-11-27T09:23:12.934Z,46.90
2022-11-27T09:28:17.459Z,47.30
2022-11-27T09:33:20.823Z,47.30
2022-11-27T09:38:25.781Z,47.10
2022-11-27T09:43:31.523Z,47.30
2022-11-27T09:48:39.264Z,47.30
2022-11-27T09:53:49.914Z,47.10
2022-11-27T09:58:58.400Z,47.30
2022-11-27T10:04:02.856Z,47.20
2022-11-27T10:09:16.458Z,47.10
2022-11-27T10:14:31.700Z,47.60
2022-11-27T10:19:45.152Z,47.40
2022-11-27T10:25:00.914Z,47.30
2022-11-27T10:30:14.138Z,47.70
2022-11-27T10:35:19.929Z,47.30
2022-11-27T10:40:29.040Z,47.50
2022-11-27T10:45:40.559Z,47.70
2022-11-27T10:50:45.879Z,47.90
2022-11-27T10:56:06.248Z,47.20
2022-11-27T11:01:11.819Z,47.70
2022-11-27T11:06:22.244Z,48.20
2022-11-27T11:11:28.379Z,47.90
2022-11-27T11:16:35.362Z,47.60
2022-11-27T11:21:40.588Z,47.40
2022-11-27T11:26:49.189Z,47.20
2022-11-27T11:31:54.507Z,47.40
2022-11-27T11:36:59.980Z,47.20
2022-11-27T11:42:11.075Z,47.40
2022-11-27T11:47:20.410Z,48.10
2022-11-27T11:52:53.219Z,47.70
2022-11-27T11:58:25.713Z,48.40
2022-11-27T12:03:39.364Z,47.80
2022-11-27T12:08:50.127Z,47.60
2022-11-27T12:14:06.875Z,47.20
2022-11-27T12:19:40.005Z,47.50
2022-11-27T12:24:53.591Z,47.50
2022-11-27T12:30:11.780Z,47.40
2022-11-27T12:35:30.307Z,47.40
2022-11-27T12:40:44.375Z,47.40
2022-11-27T12:45:54.494Z,47.30
2022-11-27T12:51:02.555Z,47.40
2022-11-27T12:56:15.939Z,47.40
2022-11-27T13:01:31.774Z,47.40
2022-11-27T13:06:43.194Z,47.20
2022-11-27T13:11:46.945Z,47.20
2022-11-27T13:16:54.676Z,47.20
2022-11-27T13:21:59.757Z,47.50
2022-11-27T13:27:07.987Z,47.60
2022-11-27T13:32:20.880Z,48.10
2022-11-27T13:37:30.102Z,47.30
2022-11-27T13:42:36.032Z,47.10
2022-11-27T13:47:43.875Z,47.10
2022-11-27T13:52:59.323Z,47.20
2022-11-27T13:58:04.223Z,47.10
2022-11-27T14:03:21.352Z,47.10
2022-11-27T14:08:27.608Z,46.90
2022-11-27T14:13:38.712Z,47.00
2022-11-27T14:18:52.065Z,47.10
2022-11-27T14:23:55.378Z,47.10
2022-11-27T14:29:01.036Z,47.10
2022-11-27T14:34:15.492Z,46.90
2022-11-27T14:39:24.402Z,46.90
2022-11-27T14:44:27.845Z,46.70
2022-11-27T14:49:33.542Z,46.60
2022-11-27T14:54:39.445Z,46.70
2022-11-27T14:59:42.757Z,46.70
2022-11-27T15:04:47.795Z,46.60
2022-11-27T15:09:53.569Z,46.50
2022-11-27T15:15:00.976Z,46.50
2022-11-27T15:20:15.422Z,46.40
2022-11-27T15:25:34.439Z,46.30
2022-11-27T15:30:45.489Z,46.40
2022-11-27T15:35:53.884Z,46.30
2022-11-27T15:41:00.848Z,46.10
2022-11-27T15:46:08.511Z,46.20
2022-11-27T15:51:13.083Z,46.20
2022-11-27T15:56:16.893Z,46.20
2022-11-27T16:01:19.995Z,46.30
2022-11-27T16:06:24.811Z,46.30
2022-11-27T16:11:29.135Z,46.10
2022-11-27T16:16:32.381Z,46.00
2022-11-27T16:21:36.904Z,46.00
2022-11-27T16:26:40.048Z,46.00
2022-11-27T16:31:43.204Z,45.90
2022-11-27T16:36:47.755Z,45.80
2022-11-27T16:41:50.850Z,45.60
2022-11-27T16:46:54.155Z,45.80
2022-11-27T16:51:58.585Z,45.70
2022-11-27T16:57:01.731Z,45.60
2022-11-27T17:02:05.178Z,45.70
2022-11-27T17:07:10.173Z,46.60
2022-11-27T17:12:13.231Z,45.90
2022-11-27T17:17:16.556Z,46.00
2022-11-27T17:22:20.965Z,46.00
2022-11-27T17:27:24.028Z,45.90
2022-11-27T17:32:27.098Z,46.00
2022-11-27T17:37:31.563Z,46.00
2022-11-27T17:42:34.848Z,46.00
2022-11-27T17:47:37.971Z,45.90
2022-11-27T17:52:42.607Z,45.80
2022-11-27T17:57:45.825Z,45.70
2022-11-27T18:02:49.217Z,45.80
2022-11-27T18:07:54.442Z,46.00
2022-11-27T18:12:57.601Z,46.20
2022-11-27T18:18:00.682Z,46.10
2022-11-27T18:23:05.443Z,46.20
2022-11-27T18:28:08.527Z,46.30
2022-11-27T18:33:11.693Z,46.10
2022-11-27T18:38:16.277Z,46.00
2022-11-27T18:43:19.375Z,46.00
2022-11-27T18:48:22.517Z,46.00
2022-11-27T18:53:26.976Z,46.00
2022-11-27T18:58:33.936Z,46.00
2022-11-27T19:03:42.748Z,46.00
2022-11-27T19:08:48.078Z,46.00
2022-11-27T19:13:52.097Z,45.90
2022-11-27T19:18:57.839Z,45.90
2022-11-27T19:24:04.524Z,46.00
2022-11-27T19:29:10.596Z,46.00
2022-11-27T19:34:17.519Z,46.00
2022-11-27T19:39:22.080Z,45.80
2022-11-27T19:44:25.442Z,45.90
2022-11-27T19:49:28.656Z,46.10
2022-11-27T19:54:33.242Z,46.10
2022-11-27T19:59:37.887Z,46.10
2022-11-27T20:04:41.145Z,46.20
2022-11-27T20:09:45.944Z,46.20
2022-11-27T20:14:49.154Z,46.20
2022-11-27T20:19:52.238Z,46.20
2022-11-27T20:25:18.271Z,46.30
2022-11-27T20:30:19.904Z,46.20
2022-11-27T20:35:23.044Z,46.40
2022-11-27T20:40:28.479Z,46.30
2022-11-27T20:45:31.662Z,46.30
2022-11-27T20:50:36.099Z,46.20
2022-11-27T20:55:40.595Z,46.20
2022-11-27T21:00:43.811Z,46.30
2022-11-27T21:05:48.198Z,46.40
2022-11-27T21:10:52.670Z,46.50
2022-11-27T21:15:55.809Z,46.40
2022-11-27T21:21:06.388Z,46.30
2022-11-27T21:26:11.496Z,46.40
2022-11-27T21:31:17.309Z,46.40
2022-11-27T21:36:21.751Z,46.30
2022-11-27T21:41:26.745Z,46.20
2022-11-27T21:46:31.177Z,46.30
2022-11-27T21:51:34.542Z,46.20
2022-11-27T21:56:40.347Z,46.20
2022-11-27T22:01:45.578Z,46.10
2022-11-27T22:06:48.921Z,46.10
2022-11-27T22:11:53.832Z,46.00
2022-11-27T22:16:57.405Z,46.10
2022-11-27T22:22:00.600Z,46.00
2022-11-27T22:27:05.201Z,46.00
2022-11-27T22:32:08.326Z,46.20
2022-11-27T22:37:11.425Z,46.20
2022-11-27T22:42:15.991Z,46.10
2022-11-27T22:47:19.127Z,46.10
2022-11-27T22:52:22.186Z,46.10
2022-11-27T22:57:26.879Z,46.10
2022-11-27T23:02:30.053Z,46.00
2022-11-27T23:07:33.241Z,46.10
2022-11-27T23:12:37.752Z,46.10
2022-11-27T23:17:40.830Z,46.20
2022-11-27T23:22:44.413Z,46.10
2022-11-27T23:27:49.004Z,46.20
2022-11-27T23:32:52.130Z,46.40
2022-11-27T23:37:55.243Z,46.40
2022-11-27T23:42:59.775Z,46.30
2022-11-27T23:48:02.861Z,46.40
2022-11-27T23:53:06.038Z,46.40
2022-11-27T23:58:10.503Z,46.30
